Time;durP1;ratioP1;P1;durP2;ratioP2;P2;SDS_P1;SDS_P2;PMS_P1;PMS_P2;Temp;Humidity;BMP_temperature;BMP_pressure;BME280_temperature;BME280_humidity;BME280_pressure;Samples;Min_cycle;Max_cycle;Signal;HPM_P1;HPM_P2
2023/07/26 00:01:21;;;;;;;;;;;;;;;18.03;nan;100248.78;4098788;28;20080;-65
2023/07/26 00:03:22;;;;;;;;;;;;;;;18.03;nan;100248.78;4090472;28;20010;-66
2023/07/26 00:05:25;;;;;;;;;;;;;;;17.99;nan;100249.25;4099178;28;19977;-65
2023/07/26 00:07:27;;;;;;;;;;;;;;;17.98;nan;100246.75;4098453;28;20037;-65
2023/07/26 00:09:28;;;;;;;;;;;;;;;17.98;nan;100247.59;4098626;28;20017;-65
2023/07/26 00:11:30;;;;;;;;;;;;;;;17.96;nan;100260.66;4099559;28;19945;-65
2023/07/26 00:13:32;;;;;;;;;;;;;;;17.96;nan;100257.06;4098343;28;20001;-65
2023/07/26 00:15:34;;;;;;;;;;;;;;;17.94;nan;100256.50;4099003;28;20017;-65
2023/07/26 00:17:35;;;;;;;;;;;;;;;17.93;nan;100263.00;4096731;28;20799;-66
2023/07/26 00:19:37;;;;;;;;;;;;;;;17.91;nan;100255.06;4099223;28;19930;-66
2023/07/26 00:21:41;;;;;;;;;;;;;;;17.91;nan;100259.69;4099140;28;20013;-66
2023/07/26 00:23:43;;;;;;;;;;;;;;;17.87;nan;100267.50;4098038;28;20010;-65
2023/07/26 00:25:45;;;;;;;;;;;;;;;17.86;nan;100262.28;4098933;28;20013;-65
2023/07/26 00:27:47;;;;;;;;;;;;;;;17.84;nan;100255.16;4098363;28;20415;-66
2023/07/26 00:29:49;;;;;;;;;;;;;;;17.86;nan;100265.00;4098012;28;20017;-65
2023/07/26 00:31:51;;;;;;;;;;;;;;;17.81;nan;100258.34;4098310;28;20021;-65
2023/07/26 00:33:53;;;;;;;;;;;;;;;17.80;nan;100264.88;4098144;28;20424;-66
2023/07/26 00:35:54;;;;;;;;;;;;;;;17.76;nan;100277.34;4098083;28;20025;-65
2023/07/26 00:37:58;;;;;;;;;;;;;;;17.73;nan;100277.00;4098573;28;20012;-65
2023/07/26 00:39:59;;;;;;;;;;;;;;;17.68;nan;100276.84;4097496;28;20388;-66
2023/07/26 00:42:01;;;;;;;;;;;;;;;17.62;nan;100274.00;4097494;28;19930;-65
2023/07/26 00:44:03;;;;;;;;;;;;;;;17.59;nan;100281.84;4097936;28;20013;-65
2023/07/26 00:46:06;;;;;;;;;;;;;;;17.57;nan;100278.50;4098952;28;20030;-65
2023/07/26 00:48:08;;;;;;;;;;;;;;;17.58;nan;100285.63;4098466;28;20037;-65
2023/07/26 00:50:10;;;;;;;;;;;;;;;17.55;nan;100286.09;4098139;28;20025;-66
2023/07/26 00:52:12;;;;;;;;;;;;;;;17.53;nan;100289.06;4098519;28;20018;-65
2023/07/26 00:54:15;;;;;;;;;;;;;;;17.51;nan;100290.34;4099446;28;20028;-65
2023/07/26 00:56:17;;;;;;;;;;;;;;;17.48;nan;100283.50;4089862;28;20018;-65
2023/07/26 00:58:20;;;;;;;;;;;;;;;17.47;nan;100287.28;4096676;28;19957;-65
2023/07/26 01:00:22;;;;;;;;;;;;;;;17.44;nan;100287.75;4099872;28;20005;-66
2023/07/26 01:02:23;;;;;;;;;;;;;;;17.39;nan;100293.06;4098253;28;20017;-65
2023/07/26 01:04:25;;;;;;;;;;;;;;;17.34;nan;100291.03;4097497;28;20013;-65
2023/07/26 01:06:29;;;;;;;;;;;;;;;17.32;nan;100285.00;4098508;28;20026;-65
2023/07/26 01:08:35;;;;;;;;;;;;;;;17.31;nan;100293.41;4099051;28;20022;-65
2023/07/26 01:10:40;;;;;;;;;;;;;;;17.30;nan;100295.28;4099111;28;20017;-66
2023/07/26 01:12:43;;;;;;;;;;;;;;;17.29;nan;100289.00;4097567;28;20013;-66
2023/07/26 01:14:47;;;;;;;;;;;;;;;17.28;nan;100290.06;4073862;29;20129;-65
2023/07/26 01:16:49;;;;;;;;;;;;;;;17.28;nan;100294.69;4098505;28;20025;-66
2023/07/26 01:18:52;;;;;;;;;;;;;;;17.24;nan;100305.25;4096992;28;20021;-64
2023/07/26 01:20:54;;;;;;;;;;;;;;;17.22;nan;100306.53;4097824;29;20005;-65
2023/07/26 01:22:59;;;;;;;;;;;;;;;17.22;nan;100309.28;4096641;28;20005;-64
2023/07/26 01:25:01;;;;;;;;;;;;;;;17.19;nan;100301.53;4098452;28;20048;-65
2023/07/26 01:27:03;;;;;;;;;;;;;;;17.17;nan;100304.50;4097755;28;20524;-65
2023/07/26 01:29:04;;;;;;;;;;;;;;;17.16;nan;100304.72;4097187;28;20016;-65
2023/07/26 01:31:07;;;;;;;;;;;;;;;17.14;nan;100304.16;4097499;28;20013;-65
2023/07/26 01:33:09;;;;;;;;;;;;;;;17.05;nan;100299.03;4097247;28;20025;-65
2023/07/26 01:35:12;;;;;;;;;;;;;;;17.01;nan;100303.25;4096636;28;20030;-65
2023/07/26 01:37:14;;;;;;;;;;;;;;;16.95;nan;100306.09;4097074;28;20022;-66
2023/07/26 01:39:18;;;;;;;;;;;;;;;16.90;nan;100309.50;4097486;28;20021;-65
2023/07/26 01:41:20;;;;;;;;;;;;;;;16.86;nan;100306.38;4097004;29;20338;-66
2023/07/26 01:43:22;;;;;;;;;;;;;;;16.85;nan;100310.16;4095621;28;20448;-66
2023/07/26 01:45:25;;;;;;;;;;;;;;;16.86;nan;100308.28;4096392;28;20013;-65
2023/07/26 01:47:28;;;;;;;;;;;;;;;16.84;nan;100311.19;4096901;28;20017;-66
2023/07/26 01:49:29;;;;;;;;;;;;;;;16.82;nan;100305.16;4097366;28;20357;-65
2023/07/26 01:51:31;;;;;;;;;;;;;;;16.81;nan;100313.56;4097373;28;20040;-65
2023/07/26 01:53:33;;;;;;;;;;;;;;;16.77;nan;100313.19;4097213;28;20017;-66
2023/07/26 01:55:37;;;;;;;;;;;;;;;16.73;nan;100315.53;4097601;28;20005;-65
2023/07/26 01:57:39;;;;;;;;;;;;;;;16.67;nan;100308.25;4096789;28;20004;-65
2023/07/26 01:59:41;;;;;;;;;;;;;;;16.62;nan;100319.03;4080331;29;20363;-65
2023/07/26 02:01:43;;;;;;;;;;;;;;;16.61;nan;100311.06;4104606;28;20468;-66
2023/07/26 02:03:45;;;;;;;;;;;;;;;16.59;nan;100311.28;4096405;28;20001;-66
2023/07/26 02:05:47;;;;;;;;;;;;;;;16.58;nan;100312.34;4112428;28;20014;-66
2023/07/26 02:07:49;;;;;;;;;;;;;;;16.58;nan;100315.94;4111502;28;19997;-65
2023/07/26 02:09:51;;;;;;;;;;;;;;;16.57;nan;100313.44;4095476;28;20021;-65
2023/07/26 02:11:55;;;;;;;;;;;;;;;16.56;nan;100315.28;4097953;28;20444;-65
2023/07/26 02:13:58;;;;;;;;;;;;;;;16.53;nan;100318.47;4096516;28;20037;-66
2023/07/26 02:16:00;;;;;;;;;;;;;;;16.52;nan;100322.28;4097103;28;20012;-66
2023/07/26 02:18:02;;;;;;;;;;;;;;;16.51;nan;100322.50;4096581;28;20017;-66
2023/07/26 02:20:06;;;;;;;;;;;;;;;16.46;nan;100325.91;4096457;28;20016;-65
2023/07/26 02:22:08;;;;;;;;;;;;;;;16.41;nan;100325.75;4097208;28;20500;-65
2023/07/26 02:24:10;;;;;;;;;;;;;;;16.40;nan;100329.53;4101461;28;20021;-66
2023/07/26 02:26:12;;;;;;;;;;;;;;;16.33;nan;100332.34;4096195;28;20475;-66
2023/07/26 02:28:15;;;;;;;;;;;;;;;16.27;nan;100338.69;4096256;28;20091;-66
2023/07/26 02:30:17;;;;;;;;;;;;;;;16.21;nan;100334.97;4112318;28;20028;-66
2023/07/26 02:32:19;;;;;;;;;;;;;;;16.16;nan;100339.41;4112301;28;20458;-65
2023/07/26 02:34:23;;;;;;;;;;;;;;;16.12;nan;100341.75;4112210;28;20389;-66
2023/07/26 02:36:25;;;;;;;;;;;;;;;16.08;nan;100339.69;4096378;28;20010;-66
2023/07/26 02:38:27;;;;;;;;;;;;;;;16.07;nan;100341.59;4088074;28;20002;-66
2023/07/26 02:40:30;;;;;;;;;;;;;;;16.07;nan;100343.50;4097066;28;20020;-66
2023/07/26 02:42:32;;;;;;;;;;;;;;;16.09;nan;100358.53;4097768;28;20138;-66
2023/07/26 02:44:35;;;;;;;;;;;;;;;16.08;nan;100343.28;4097375;28;20409;-66
2023/07/26 02:46:37;;;;;;;;;;;;;;;16.06;nan;100344.53;4112691;28;20017;-66
2023/07/26 02:48:39;;;;;;;;;;;;;;;16.01;nan;100346.03;4111397;28;20013;-66
2023/07/26 02:50:41;;;;;;;;;;;;;;;16.00;nan;100343.53;4097351;28;20012;-66
2023/07/26 02:52:43;;;;;;;;;;;;;;;15.97;nan;100341.25;4102320;28;20009;-66
2023/07/26 02:54:45;;;;;;;;;;;;;;;15.97;nan;100352.16;4097495;28;20001;-65
2023/07/26 02:56:47;;;;;;;;;;;;;;;15.97;nan;100354.88;4097286;28;20017;-65
2023/07/26 02:58:49;;;;;;;;;;;;;;;15.88;nan;100359.78;4097365;28;20383;-66
2023/07/26 03:00:53;;;;;;;;;;;;;;;15.84;nan;100363.97;4097099;28;20379;-66
2023/07/26 03:02:55;;;;;;;;;;;;;;;15.77;nan;100364.03;4111528;28;20013;-66
2023/07/26 03:04:58;;;;;;;;;;;;;;;15.76;nan;100370.50;4097043;28;20028;-66
2023/07/26 03:07:00;;;;;;;;;;;;;;;15.77;nan;100371.38;4097682;28;20009;-66
2023/07/26 03:09:01;;;;;;;;;;;;;;;15.76;nan;100366.94;4095941;28;20053;-66
2023/07/26 03:11:03;;;;;;;;;;;;;;;15.72;nan;100371.16;4096770;28;19926;-66
2023/07/26 03:13:05;;;;;;;;;;;;;;;15.65;nan;100371.22;4095143;28;20033;-66
2023/07/26 03:15:07;;;;;;;;;;;;;;;15.62;nan;100377.09;4097014;28;20017;-66
2023/07/26 03:17:11;;;;;;;;;;;;;;;15.60;nan;100371.03;4097089;28;20366;-66
2023/07/26 03:19:12;;;;;;;;;;;;;;;15.53;nan;100378.41;4098170;28;20005;-66
2023/07/26 03:21:14;;;;;;;;;;;;;;;15.48;nan;100388.03;4106093;28;19926;-66
2023/07/26 03:23:15;;;;;;;;;;;;;;;15.43;nan;100393.31;4090833;28;20020;-66
2023/07/26 03:25:17;;;;;;;;;;;;;;;15.39;nan;100399.41;4115116;28;20025;-66
2023/07/26 03:27:19;;;;;;;;;;;;;;;15.35;nan;100396.28;4097995;28;20022;-65
2023/07/26 03:29:21;;;;;;;;;;;;;;;15.33;nan;100409.28;4100400;28;20456;-66
2023/07/26 03:31:22;;;;;;;;;;;;;;;15.31;nan;100409.50;4099015;28;20017;-68
2023/07/26 03:33:26;;;;;;;;;;;;;;;15.29;nan;100408.88;4099031;28;20484;-63
2023/07/26 03:35:28;;;;;;;;;;;;;;;15.25;nan;100414.94;4100561;28;20009;-65
2023/07/26 03:37:30;;;;;;;;;;;;;;;15.14;nan;100409.16;4098383;28;20021;-66
2023/07/26 03:39:32;;;;;;;;;;;;;;;15.09;nan;100405.41;4099727;28;20033;-65
2023/07/26 03:41:34;;;;;;;;;;;;;;;15.06;nan;100414.00;4099059;28;20026;-66
2023/07/26 03:43:36;;;;;;;;;;;;;;;15.02;nan;100416.31;4096955;28;20013;-66
2023/07/26 03:45:38;;;;;;;;;;;;;;;15.04;nan;100421.53;4098563;28;20013;-65
2023/07/26 03:47:42;;;;;;;;;;;;;;;15.01;nan;100422.78;4097907;28;19985;-65
2023/07/26 03:49:45;;;;;;;;;;;;;;;15.01;nan;100420.06;4099548;28;20457;-65
2023/07/26 03:51:47;;;;;;;;;;;;;;;14.98;nan;100433.25;4098437;28;20022;-66
2023/07/26 03:53:49;;;;;;;;;;;;;;;14.90;nan;100431.63;4098304;28;20025;-66
2023/07/26 03:55:51;;;;;;;;;;;;;;;14.87;nan;100438.28;4098838;28;20046;-66
2023/07/26 03:57:52;;;;;;;;;;;;;;;14.84;nan;100436.00;4099017;28;20096;-65
2023/07/26 03:59:54;;;;;;;;;;;;;;;14.77;nan;100441.47;4098500;28;19933;-65
2023/07/26 04:01:56;;;;;;;;;;;;;;;14.75;nan;100432.69;4098112;28;20013;-66
2023/07/26 04:03:58;;;;;;;;;;;;;;;14.76;nan;100436.25;4098531;28;20637;-66
2023/07/26 04:06:02;;;;;;;;;;;;;;;14.76;nan;100441.69;4098695;29;20012;-66
2023/07/26 04:08:04;;;;;;;;;;;;;;;14.73;nan;100442.94;4097072;28;20033;-66
2023/07/26 04:10:06;;;;;;;;;;;;;;;14.73;nan;100440.22;4099393;28;20013;-66
2023/07/26 04:12:08;;;;;;;;;;;;;;;14.75;nan;100445.47;4098444;28;20013;-65
2023/07/26 04:14:10;;;;;;;;;;;;;;;14.71;nan;100450.47;4098389;28;20013;-66
2023/07/26 04:16:12;;;;;;;;;;;;;;;14.72;nan;100446.72;4097583;28;20017;-66
2023/07/26 04:18:14;;;;;;;;;;;;;;;14.73;nan;100442.09;4097640;28;19997;-65
2023/07/26 04:20:16;;;;;;;;;;;;;;;14.72;nan;100449.44;4098870;28;20026;-66
2023/07/26 04:22:19;;;;;;;;;;;;;;;14.70;nan;100451.53;4098463;28;20472;-66
2023/07/26 04:24:22;;;;;;;;;;;;;;;14.69;nan;100457.19;4097912;28;20012;-66
2023/07/26 04:26:24;;;;;;;;;;;;;;;14.69;nan;100454.47;4099028;28;20463;-66
2023/07/26 04:28:26;;;;;;;;;;;;;;;14.71;nan;100458.63;4098695;28;20017;-66
2023/07/26 04:30:28;;;;;;;;;;;;;;;14.72;nan;100456.75;4098725;28;20017;-65
2023/07/26 04:32:30;;;;;;;;;;;;;;;14.72;nan;100451.31;4097436;28;20464;-65
2023/07/26 04:34:32;;;;;;;;;;;;;;;14.73;nan;100445.69;4098762;28;20005;-66
2023/07/26 04:36:34;;;;;;;;;;;;;;;14.75;nan;100461.78;4098913;28;20011;-66
2023/07/26 04:38:37;;;;;;;;;;;;;;;14.76;nan;100458.00;4099879;28;20030;-66
2023/07/26 04:40:39;;;;;;;;;;;;;;;14.78;nan;100451.31;4098037;28;20017;-66
2023/07/26 04:42:41;;;;;;;;;;;;;;;14.83;nan;100456.09;4098017;28;20010;-66
2023/07/26 04:44:43;;;;;;;;;;;;;;;14.86;nan;100455.69;4098717;28;20021;-66
2023/07/26 04:46:45;;;;;;;;;;;;;;;14.90;nan;100454.19;4104895;28;20028;-65
2023/07/26 04:48:47;;;;;;;;;;;;;;;14.92;nan;100452.13;4097618;28;20364;-66
2023/07/26 04:50:49;;;;;;;;;;;;;;;14.94;nan;100455.44;4098490;28;20025;-66
2023/07/26 04:52:51;;;;;;;;;;;;;;;14.94;nan;100457.34;4098705;28;20041;-66
2023/07/26 04:54:56;;;;;;;;;;;;;;;14.93;nan;100461.09;4098984;28;20026;-66
2023/07/26 04:56:57;;;;;;;;;;;;;;;14.96;nan;100464.22;4097841;28;20017;-66
2023/07/26 04:58:59;;;;;;;;;;;;;;;14.95;nan;100467.16;4098990;28;20013;-66
2023/07/26 05:01:01;;;;;;;;;;;;;;;14.96;nan;100461.50;4098256;28;20020;-65
2023/07/26 05:03:04;;;;;;;;;;;;;;;15.01;nan;100462.75;4097607;28;20017;-66
2023/07/26 05:05:06;;;;;;;;;;;;;;;15.03;nan;100464.22;4098057;28;20014;-66
2023/07/26 05:07:08;;;;;;;;;;;;;;;15.08;nan;100460.88;4098454;28;20018;-65
2023/07/26 05:09:10;;;;;;;;;;;;;;;15.13;nan;100463.78;4098152;28;20024;-66
2023/07/26 05:11:13;;;;;;;;;;;;;;;15.16;nan;100466.06;4098202;28;20013;-65
2023/07/26 05:13:15;;;;;;;;;;;;;;;15.18;nan;100468.56;4097629;28;20013;-66
2023/07/26 05:15:17;;;;;;;;;;;;;;;15.21;nan;100470.88;4094111;28;19965;-65
2023/07/26 05:17:19;;;;;;;;;;;;;;;15.24;nan;100465.81;4097571;28;20017;-66
2023/07/26 05:19:21;;;;;;;;;;;;;;;15.28;nan;100471.66;4098661;28;20017;-65
2023/07/26 05:21:23;;;;;;;;;;;;;;;15.29;nan;100466.00;4098072;28;20021;-66
2023/07/26 05:23:25;;;;;;;;;;;;;;;15.30;nan;100472.31;4098032;28;20005;-65
2023/07/26 05:25:27;;;;;;;;;;;;;;;15.31;nan;100477.53;4098543;28;20013;-66
2023/07/26 05:27:30;;;;;;;;;;;;;;;15.31;nan;100476.66;4097297;28;20017;-66
2023/07/26 05:29:32;;;;;;;;;;;;;;;15.30;nan;100478.56;4098073;28;20009;-65
2023/07/26 05:31:34;;;;;;;;;;;;;;;15.29;nan;100476.88;4099643;28;20473;-66
2023/07/26 05:33:36;;;;;;;;;;;;;;;15.30;nan;100478.56;4097398;28;20001;-65
2023/07/26 05:35:38;;;;;;;;;;;;;;;15.31;nan;100472.09;4098448;28;20005;-65
2023/07/26 05:37:40;;;;;;;;;;;;;;;15.34;nan;100472.69;4098839;28;20475;-66
2023/07/26 05:39:42;;;;;;;;;;;;;;;15.35;nan;100474.38;4097344;28;20017;-66
2023/07/26 05:41:44;;;;;;;;;;;;;;;15.40;nan;100482.72;4097558;28;20017;-66
2023/07/26 05:43:48;;;;;;;;;;;;;;;15.45;nan;100482.91;4097496;28;20448;-66
2023/07/26 05:45:49;;;;;;;;;;;;;;;15.44;nan;100479.34;4097160;28;20452;-66
2023/07/26 05:47:50;;;;;;;;;;;;;;;15.47;nan;100478.09;4097170;28;19927;-66
2023/07/26 05:49:52;;;;;;;;;;;;;;;15.49;nan;100476.81;4098357;28;20001;-65
2023/07/26 05:51:54;;;;;;;;;;;;;;;15.50;nan;100477.63;4097433;28;20029;-66
2023/07/26 05:53:56;;;;;;;;;;;;;;;15.50;nan;100472.19;4097171;28;20009;-65
2023/07/26 05:55:58;;;;;;;;;;;;;;;15.52;nan;100491.03;4098153;28;20417;-65
2023/07/26 05:58:00;;;;;;;;;;;;;;;15.54;nan;100484.34;4097446;28;20013;-66
2023/07/26 06:00:05;;;;;;;;;;;;;;;15.59;nan;100486.41;4097156;28;20750;-66
2023/07/26 06:02:14;;;;;;;;;;;;;;;15.62;nan;100492.25;4097839;28;20018;-65
2023/07/26 06:04:16;;;;;;;;;;;;;;;15.65;nan;100496.44;4097634;28;20454;-66
2023/07/26 06:06:18;;;;;;;;;;;;;;;15.71;nan;100492.03;4096847;28;20025;-66
2023/07/26 06:08:20;;;;;;;;;;;;;;;15.73;nan;100490.72;4096997;28;20001;-65
2023/07/26 06:10:22;;;;;;;;;;;;;;;15.74;nan;100495.13;4097140;28;20440;-65
2023/07/26 06:12:24;;;;;;;;;;;;;;;15.72;nan;100494.53;4096415;28;20018;-65
2023/07/26 06:14:26;;;;;;;;;;;;;;;15.72;nan;100494.53;4096397;28;20048;-65
2023/07/26 06:16:29;;;;;;;;;;;;;;;15.74;nan;100497.03;4097652;28;20005;-65
2023/07/26 06:18:31;;;;;;;;;;;;;;;15.75;nan;100496.81;4096240;28;20006;-65
2023/07/26 06:20:33;;;;;;;;;;;;;;;15.77;nan;100497.47;4097012;29;20017;-65
2023/07/26 06:22:35;;;;;;;;;;;;;;;15.80;nan;100497.03;4096273;28;20445;-65
2023/07/26 06:24:37;;;;;;;;;;;;;;;15.82;nan;100494.09;4097367;28;20013;-65
2023/07/26 06:26:39;;;;;;;;;;;;;;;15.81;nan;100495.94;4096964;28;20021;-66
2023/07/26 06:28:42;;;;;;;;;;;;;;;15.80;nan;100491.56;4097692;28;20008;-66
2023/07/26 06:30:44;;;;;;;;;;;;;;;15.82;nan;100489.47;4095639;28;20012;-65
2023/07/26 06:32:50;;;;;;;;;;;;;;;15.87;nan;100493.44;4095698;28;20023;-65
2023/07/26 06:34:52;;;;;;;;;;;;;;;15.88;nan;100495.06;4097774;28;20021;-66
2023/07/26 06:36:54;;;;;;;;;;;;;;;15.89;nan;100497.59;4096359;28;20015;-66
2023/07/26 06:38:57;;;;;;;;;;;;;;;15.94;nan;100492.34;4094983;28;20005;-65
2023/07/26 06:40:58;;;;;;;;;;;;;;;16.01;nan;100489.56;4096955;28;20017;-65
2023/07/26 06:43:00;;;;;;;;;;;;;;;16.03;nan;100485.59;4096636;28;20001;-65
2023/07/26 06:45:03;;;;;;;;;;;;;;;16.05;nan;100493.53;4097387;28;20072;-66
2023/07/26 06:47:05;;;;;;;;;;;;;;;16.07;nan;100498.75;4096250;28;19992;-65
2023/07/26 06:49:10;;;;;;;;;;;;;;;16.06;nan;100497.91;4096383;28;20016;-66
2023/07/26 06:51:12;;;;;;;;;;;;;;;16.07;nan;100501.50;4096671;28;20017;-64
2023/07/26 06:53:12;;;;;;;;;;;;;;;16.06;nan;100500.63;4098122;28;20030;-66
2023/07/26 06:55:15;;;;;;;;;;;;;;;16.09;nan;100502.09;4099811;28;20014;-66
2023/07/26 06:57:17;;;;;;;;;;;;;;;16.13;nan;100512.34;4100527;28;20024;-66
2023/07/26 06:59:20;;;;;;;;;;;;;;;16.15;nan;100512.13;4100010;28;20021;-65
2023/07/26 07:01:22;;;;;;;;;;;;;;;16.20;nan;100509.56;4100044;28;20021;-66
2023/07/26 07:03:24;;;;;;;;;;;;;;;16.24;nan;100507.22;4099203;28;20032;-65
2023/07/26 07:05:28;;;;;;;;;;;;;;;16.24;nan;100505.34;4100336;28;20425;-65
2023/07/26 07:07:30;;;;;;;;;;;;;;;16.27;nan;100510.34;4100058;28;20018;-66
2023/07/26 07:09:31;;;;;;;;;;;;;;;16.32;nan;100509.69;4100742;28;20017;-64
2023/07/26 07:11:32;;;;;;;;;;;;;;;16.33;nan;100511.34;4101511;28;20025;-66
2023/07/26 07:13:35;;;;;;;;;;;;;;;16.37;nan;100507.13;4100416;28;19926;-66
2023/07/26 07:15:37;;;;;;;;;;;;;;;16.37;nan;100504.41;4100475;28;20023;-65
2023/07/26 07:17:39;;;;;;;;;;;;;;;16.41;nan;100508.38;4099012;28;20013;-65
2023/07/26 07:19:41;;;;;;;;;;;;;;;16.44;nan;100505.22;4099917;28;20022;-66
2023/07/26 07:21:44;;;;;;;;;;;;;;;16.49;nan;100508.09;4100651;28;20017;-66
2023/07/26 07:23:47;;;;;;;;;;;;;;;16.51;nan;100503.25;4099895;28;20359;-65
2023/07/26 07:25:49;;;;;;;;;;;;;;;16.53;nan;100506.56;4099045;28;20013;-66
2023/07/26 07:27:51;;;;;;;;;;;;;;;16.53;nan;100503.03;4099610;28;20020;-65
2023/07/26 07:29:53;;;;;;;;;;;;;;;16.55;nan;100504.47;4100178;28;20010;-65
2023/07/26 07:31:55;;;;;;;;;;;;;;;16.60;nan;100500.25;4100238;28;20017;-66
2023/07/26 07:33:57;;;;;;;;;;;;;;;16.64;nan;100505.03;4099699;28;20424;-65
2023/07/26 07:35:59;;;;;;;;;;;;;;;16.67;nan;100509.22;4100841;28;20028;-66
2023/07/26 07:38:05;;;;;;;;;;;;;;;16.67;nan;100496.41;4099762;28;20020;-65
2023/07/26 07:40:08;;;;;;;;;;;;;;;16.77;nan;100512.28;4099896;28;20037;-65
2023/07/26 07:42:09;;;;;;;;;;;;;;;16.82;nan;100509.69;4100483;28;19954;-65
2023/07/26 07:44:11;;;;;;;;;;;;;;;16.85;nan;100511.97;4100396;28;20005;-65
2023/07/26 07:46:12;;;;;;;;;;;;;;;16.88;nan;100518.91;4100554;28;20017;-65
2023/07/26 07:48:14;;;;;;;;;;;;;;;16.92;nan;100526.41;4100155;28;19928;-65
2023/07/26 07:50:16;;;;;;;;;;;;;;;16.96;nan;100515.91;4099100;28;19986;-66
2023/07/26 07:52:18;;;;;;;;;;;;;;;17.00;nan;100519.00;4100800;28;20018;-65
2023/07/26 07:54:22;;;;;;;;;;;;;;;17.05;nan;100513.69;4098169;28;20041;-65
2023/07/26 07:56:24;;;;;;;;;;;;;;;17.09;nan;100513.03;4096789;28;20041;-66
2023/07/26 07:58:26;;;;;;;;;;;;;;;17.14;nan;100517.81;4096736;28;20017;-66
2023/07/26 08:00:28;;;;;;;;;;;;;;;17.16;nan;100521.13;4099136;28;20017;-65
2023/07/26 08:02:30;;;;;;;;;;;;;;;17.11;nan;100516.38;4099436;28;20458;-66
2023/07/26 08:04:32;;;;;;;;;;;;;;;17.10;nan;100519.34;4097594;28;20207;-65
2023/07/26 08:06:33;;;;;;;;;;;;;;;17.09;nan;100514.94;4098329;28;20029;-65
2023/07/26 08:08:35;;;;;;;;;;;;;;;17.12;nan;100519.94;4098891;28;19922;-65
2023/07/26 08:10:39;;;;;;;;;;;;;;;17.18;nan;100529.94;4100139;28;20037;-65
2023/07/26 08:12:41;;;;;;;;;;;;;;;17.21;nan;100529.50;4098794;28;20034;-65
2023/07/26 08:14:48;;;;;;;;;;;;;;;17.24;nan;100526.31;4098367;28;20021;-65
2023/07/26 08:16:50;;;;;;;;;;;;;;;17.27;nan;100525.00;4099072;28;20005;-65
2023/07/26 08:18:52;;;;;;;;;;;;;;;17.31;nan;100528.16;4098383;28;20013;-65
2023/07/26 08:20:54;;;;;;;;;;;;;;;17.31;nan;100528.97;4097945;28;20022;-65
2023/07/26 08:22:56;;;;;;;;;;;;;;;17.31;nan;100528.97;4098803;28;20005;-66
2023/07/26 08:24:58;;;;;;;;;;;;;;;17.35;nan;100524.72;4099882;28;20460;-65
2023/07/26 08:27:02;;;;;;;;;;;;;;;17.40;nan;100529.50;4099266;28;20017;-66
2023/07/26 08:29:05;;;;;;;;;;;;;;;17.41;nan;100522.97;4097821;28;20361;-65
2023/07/26 08:31:06;;;;;;;;;;;;;;;17.46;nan;100528.56;4098925;28;20013;-65
2023/07/26 08:33:08;;;;;;;;;;;;;;;17.45;nan;100527.75;4099531;28;20009;-66
2023/07/26 08:35:10;;;;;;;;;;;;;;;17.44;nan;100536.16;4099437;28;20016;-65
2023/07/26 08:37:12;;;;;;;;;;;;;;;17.44;nan;100536.16;4098364;28;20022;-65
2023/07/26 08:39:13;;;;;;;;;;;;;;;17.47;nan;100532.97;4098291;28;20021;-66
2023/07/26 08:41:15;;;;;;;;;;;;;;;17.42;nan;100527.38;4098895;28;19929;-65
2023/07/26 08:43:19;;;;;;;;;;;;;;;17.45;nan;100535.13;4098263;28;20057;-66
2023/07/26 08:45:21;;;;;;;;;;;;;;;17.42;nan;100532.84;4098544;28;20370;-66
2023/07/26 08:47:23;;;;;;;;;;;;;;;17.37;nan;100532.69;4097792;28;20016;-66
2023/07/26 08:49:25;;;;;;;;;;;;;;;17.39;nan;100527.84;4097882;28;20041;-65
2023/07/26 08:51:28;;;;;;;;;;;;;;;17.40;nan;100527.59;4096291;29;20033;-65
2023/07/26 08:53:30;;;;;;;;;;;;;;;17.46;nan;100531.31;4095554;28;20013;-65
2023/07/26 08:55:32;;;;;;;;;;;;;;;17.57;nan;100529.72;4097458;28;20021;-66
2023/07/26 08:57:34;;;;;;;;;;;;;;;17.59;nan;100533.88;4092217;28;20418;-66
2023/07/26 08:59:37;;;;;;;;;;;;;;;17.62;nan;100535.34;4097426;28;20009;-66
2023/07/26 09:01:39;;;;;;;;;;;;;;;17.63;nan;100529.66;4098258;28;19994;-66
2023/07/26 09:03:41;;;;;;;;;;;;;;;17.66;nan;100539.25;4098299;28;20010;-66
2023/07/26 09:05:45;;;;;;;;;;;;;;;17.65;nan;100541.16;4099226;28;20047;-65
2023/07/26 09:07:51;;;;;;;;;;;;;;;17.63;nan;100540.56;4097383;28;20001;-66
2023/07/26 09:09:53;;;;;;;;;;;;;;;17.65;nan;100549.38;4097523;28;20028;-66
2023/07/26 09:11:55;;;;;;;;;;;;;;;17.67;nan;100545.59;4097763;28;20017;-66
2023/07/26 09:13:58;;;;;;;;;;;;;;;17.63;nan;100546.03;4094758;28;20130;-66
2023/07/26 09:16:02;;;;;;;;;;;;;;;17.64;nan;100547.69;4095214;28;20021;-65
2023/07/26 09:18:04;;;;;;;;;;;;;;;17.63;nan;100540.56;4094968;28;20013;-65
2023/07/26 09:20:07;;;;;;;;;;;;;;;17.63;nan;100546.03;4096367;28;20021;-66
2023/07/26 09:22:09;;;;;;;;;;;;;;;17.69;nan;100551.63;4097767;28;20026;-65
2023/07/26 09:24:11;;;;;;;;;;;;;;;17.73;nan;100537.28;4096841;28;20013;-66
2023/07/26 09:26:12;;;;;;;;;;;;;;;17.75;nan;100537.88;4097725;28;20033;-65
2023/07/26 09:28:14;;;;;;;;;;;;;;;17.80;nan;100545.41;4098043;28;20470;-65
2023/07/26 09:30:17;;;;;;;;;;;;;;;17.86;nan;100535.47;4097650;28;20021;-65
2023/07/26 09:32:23;;;;;;;;;;;;;;;17.91;nan;100538.34;4097059;28;20021;-65
2023/07/26 09:34:25;;;;;;;;;;;;;;;17.94;nan;100538.72;4096164;28;20431;-65
2023/07/26 09:36:28;;;;;;;;;;;;;;;17.98;nan;100545.41;4098247;28;20409;-64
2023/07/26 09:38:30;;;;;;;;;;;;;;;18.01;nan;100538.66;4097279;28;20005;-65
2023/07/26 09:40:33;;;;;;;;;;;;;;;18.00;nan;100537.81;4096652;28;20022;-65
2023/07/26 09:42:41;;;;;;;;;;;;;;;18.03;nan;100530.22;4097190;28;20013;-65
2023/07/26 09:44:46;;;;;;;;;;;;;;;18.07;nan;100534.16;4098590;28;20017;-67
2023/07/26 09:46:48;;;;;;;;;;;;;;;18.11;nan;100538.09;4098155;28;20013;-64
2023/07/26 09:48:59;;;;;;;;;;;;;;;18.14;nan;100534.91;4096269;28;20017;-65
2023/07/26 09:51:01;;;;;;;;;;;;;;;18.18;nan;100545.13;4097538;28;20016;-65
2023/07/26 09:53:03;;;;;;;;;;;;;;;18.18;nan;100538.81;4097324;28;19998;-64
2023/07/26 09:55:06;;;;;;;;;;;;;;;18.16;nan;100536.31;4097303;28;20025;-65
2023/07/26 09:57:08;;;;;;;;;;;;;;;18.13;nan;100535.94;4097999;28;20021;-64
2023/07/26 09:59:10;;;;;;;;;;;;;;;18.16;nan;100554.63;4095687;28;20206;-65
2023/07/26 10:01:12;;;;;;;;;;;;;;;18.14;nan;100530.25;4097788;28;20009;-65
2023/07/26 10:03:16;;;;;;;;;;;;;;;18.14;nan;100532.97;4096690;28;20001;-65
2023/07/26 10:05:20;;;;;;;;;;;;;;;18.13;nan;100530.47;4097791;28;20484;-65
2023/07/26 10:07:23;;;;;;;;;;;;;;;18.15;nan;100521.00;4096636;28;20025;-64
2023/07/26 10:09:25;;;;;;;;;;;;;;;18.19;nan;100518.63;4097146;28;20860;-64
2023/07/26 10:11:27;;;;;;;;;;;;;;;18.24;nan;100521.47;4096950;28;20444;-65
2023/07/26 10:13:30;;;;;;;;;;;;;;;18.29;nan;100521.63;4096443;28;20012;-64
2023/07/26 10:15:32;;;;;;;;;;;;;;;18.32;nan;100514.84;4096670;28;20029;-65
2023/07/26 10:17:34;;;;;;;;;;;;;;;18.37;nan;100512.28;4095237;28;20334;-65
2023/07/26 10:19:36;;;;;;;;;;;;;;;18.39;nan;100514.75;4096447;28;20021;-65
2023/07/26 10:21:40;;;;;;;;;;;;;;;18.42;nan;100512.38;4096403;28;20015;-65
2023/07/26 10:23:44;;;;;;;;;;;;;;;18.43;nan;100513.22;4097188;28;20025;-65
2023/07/26 10:25:46;;;;;;;;;;;;;;;18.46;nan;100512.75;4097407;28;20021;-64
2023/07/26 10:27:50;;;;;;;;;;;;;;;18.51;nan;100502.78;4095639;28;20441;-66
2023/07/26 10:29:54;;;;;;;;;;;;;;;18.57;nan;100509.19;4097153;28;20011;-66
2023/07/26 10:31:59;;;;;;;;;;;;;;;18.60;nan;100516.91;4097419;28;20016;-65
2023/07/26 10:34:02;;;;;;;;;;;;;;;18.62;nan;100506.59;4095864;28;20026;-66
2023/07/26 10:36:07;;;;;;;;;;;;;;;18.63;nan;100512.91;4097432;28;19997;-66
2023/07/26 10:38:13;;;;;;;;;;;;;;;18.67;nan;100503.97;4094948;28;20029;-65
2023/07/26 10:40:30;;;;;;;;;;;;;;;18.69;nan;100501.84;4095788;28;20010;-65
2023/07/26 10:42:33;;;;;;;;;;;;;;;18.71;nan;100510.66;4096659;28;20025;-65
2023/07/26 10:44:39;;;;;;;;;;;;;;;18.74;nan;100501.13;4096942;29;20013;-65
2023/07/26 10:46:48;;;;;;;;;;;;;;;18.79;nan;100506.72;4096989;29;20861;-65